Time;durP1;ratioP1;P1;durP2;ratioP2;P2;SDS_P1;SDS_P2;PMS_P1;PMS_P2;Temp;Humidity;BMP_temperature;BMP_pressure;BME280_temperature;BME280_humidity;BME280_pressure;Samples;Min_cycle;Max_cycle;Signal;HPM_P1;HPM_P2
2022/04/02 00:02:09;;;;;;;;;;;;;;;4.73;100.00;96548.88;5075293;28;19981;-76
2022/04/02 00:04:36;;;;;;;;;;;;;;;4.98;100.00;96535.75;5075774;28;19955;-76
2022/04/02 00:07:05;;;;;;;;;;;;;;;5.15;100.00;96544.25;5075936;28;20195;-76
2022/04/02 00:09:32;;;;;;;;;;;;;;;4.57;100.00;96539.28;5072057;28;19925;-77
2022/04/02 00:11:59;;;;;;;;;;;;;;;4.00;100.00;96539.22;5073602;28;19924;-76
2022/04/02 00:14:25;;;;;;;;;;;;;;;3.88;100.00;96541.25;5076661;28;19924;-76
2022/04/02 00:16:53;;;;;;;;;;;;;;;3.41;100.00;96543.78;5075102;28;19991;-76
2022/04/02 00:19:20;;;;;;;;;;;;;;;4.15;100.00;96537.47;5071710;28;19925;-76
2022/04/02 00:21:47;;;;;;;;;;;;;;;4.19;100.00;96535.94;5073079;28;20441;-75
2022/04/02 00:24:13;;;;;;;;;;;;;;;4.18;100.00;96534.31;5075084;28;19921;-75
2022/04/02 00:26:39;;;;;;;;;;;;;;;4.13;100.00;96539.59;5076849;28;19936;-76
2022/04/02 00:29:10;;;;;;;;;;;;;;;4.29;100.00;96543.91;5075380;28;20694;-76
2022/04/02 00:31:36;;;;;;;;;;;;;;;4.19;100.00;96550.97;5073323;28;19996;-76
2022/04/02 00:34:04;;;;;;;;;;;;;;;4.29;100.00;96551.84;5073756;28;19924;-76
2022/04/02 00:36:34;;;;;;;;;;;;;;;4.81;100.00;96551.00;5076255;28;19960;-76
2022/04/02 00:39:00;;;;;;;;;;;;;;;4.96;100.00;96552.91;5075994;28;19942;-76
2022/04/02 00:41:27;;;;;;;;;;;;;;;4.96;100.00;96553.72;5075667;28;19952;-76
2022/04/02 00:43:58;;;;;;;;;;;;;;;4.73;100.00;96543.59;5075219;28;19964;-76
2022/04/02 00:46:24;;;;;;;;;;;;;;;4.44;100.00;96545.03;5068730;28;19979;-77
2022/04/02 00:48:51;;;;;;;;;;;;;;;4.29;100.00;96549.19;5076706;28;19982;-77
2022/04/02 00:51:19;;;;;;;;;;;;;;;4.47;100.00;96547.97;5079439;28;19927;-77
2022/04/02 00:53:47;;;;;;;;;;;;;;;4.10;100.00;96550.66;5080546;28;19974;-76
2022/04/02 00:56:14;;;;;;;;;;;;;;;4.34;100.00;96557.16;5075833;28;19925;-76
2022/04/02 00:58:40;;;;;;;;;;;;;;;3.92;100.00;96568.75;5075297;28;19925;-76
2022/04/02 01:01:07;;;;;;;;;;;;;;;4.00;100.00;96568.28;5076878;28;19947;-76
2022/04/02 01:03:33;;;;;;;;;;;;;;;3.63;100.00;96570.91;5079621;28;19924;-77
2022/04/02 01:06:00;;;;;;;;;;;;;;;4.25;100.00;96561.31;5079387;28;19924;-76
2022/04/02 01:08:28;;;;;;;;;;;;;;;4.11;100.00;96562.84;5075922;28;20302;-77
2022/04/02 01:10:55;;;;;;;;;;;;;;;4.09;100.00;96564.91;5078029;28;19960;-77
2022/04/02 01:13:23;;;;;;;;;;;;;;;3.83;100.00;96565.81;5074156;28;19967;-77
2022/04/02 01:15:49;;;;;;;;;;;;;;;3.38;100.00;96560.09;5078012;28;19935;-77
2022/04/02 01:18:15;;;;;;;;;;;;;;;3.66;100.00;96567.75;5080453;28;19951;-76
2022/04/02 01:20:42;;;;;;;;;;;;;;;4.00;100.00;96570.91;5074531;28;19925;-76
2022/04/02 01:23:10;;;;;;;;;;;;;;;3.97;100.00;96577.50;5079985;28;19925;-75
2022/04/02 01:25:36;;;;;;;;;;;;;;;4.14;100.00;96577.38;5080351;28;19934;-76
2022/04/02 01:28:03;;;;;;;;;;;;;;;4.03;100.00;96584.41;5080181;28;20130;-75
2022/04/02 01:30:30;;;;;;;;;;;;;;;3.75;100.00;96582.09;5075214;28;19989;-75
2022/04/02 01:32:57;;;;;;;;;;;;;;;3.24;100.00;96586.91;5080119;28;19960;-75
2022/04/02 01:35:23;;;;;;;;;;;;;;;3.60;100.00;96592.50;5074362;28;19924;-76
2022/04/02 01:37:50;;;;;;;;;;;;;;;2.91;100.00;96588.94;5075135;28;19925;-75
2022/04/02 01:40:18;;;;;;;;;;;;;;;3.11;100.00;96592.56;5076660;28;19951;-75
2022/04/02 01:42:45;;;;;;;;;;;;;;;3.18;100.00;96595.03;5078786;28;20338;-76
2022/04/02 01:45:12;;;;;;;;;;;;;;;3.82;100.00;96595.88;5076386;28;19928;-76
2022/04/02 01:47:39;;;;;;;;;;;;;;;4.11;100.00;96594.53;5074059;28;19929;-77
2022/04/02 01:50:06;;;;;;;;;;;;;;;3.57;100.00;96596.47;5075068;28;19931;-76
2022/04/02 01:52:33;;;;;;;;;;;;;;;3.56;100.00;96596.72;5077061;28;19963;-76
2022/04/02 01:54:59;;;;;;;;;;;;;;;3.57;100.00;96599.09;5077867;28;19932;-76
2022/04/02 01:57:27;;;;;;;;;;;;;;;3.59;100.00;96593.59;5073923;28;19951;-76
2022/04/02 01:59:53;;;;;;;;;;;;;;;3.88;100.00;96599.34;5073510;28;19924;-75
2022/04/02 02:02:20;;;;;;;;;;;;;;;4.29;100.00;96591.47;5077085;28;19959;-76
2022/04/02 02:04:47;;;;;;;;;;;;;;;4.42;100.00;96589.44;5077282;28;19925;-76
2022/04/02 02:07:14;;;;;;;;;;;;;;;4.36;100.00;96602.59;5075641;28;19935;-76
2022/04/02 02:09:40;;;;;;;;;;;;;;;4.30;100.00;96592.28;5075570;28;20257;-76
2022/04/02 02:12:07;;;;;;;;;;;;;;;3.31;100.00;96593.84;5074958;28;19991;-76
2022/04/02 02:14:35;;;;;;;;;;;;;;;4.30;100.00;96587.00;5078649;28;19924;-77
2022/04/02 02:17:01;;;;;;;;;;;;;;;4.07;100.00;96592.63;5077073;28;19939;-76
2022/04/02 02:19:27;;;;;;;;;;;;;;;3.80;100.00;96604.06;5071811;28;20362;-76
2022/04/02 02:21:54;;;;;;;;;;;;;;;3.82;100.00;96601.16;5073760;28;19964;-75
2022/04/02 02:24:21;;;;;;;;;;;;;;;3.80;100.00;96603.28;5076654;28;19925;-76
2022/04/02 02:26:47;;;;;;;;;;;;;;;3.26;100.00;96608.56;5077823;28;19931;-76
2022/04/02 02:29:13;;;;;;;;;;;;;;;3.86;100.00;96612.81;5074373;28;19988;-76
2022/04/02 02:31:41;;;;;;;;;;;;;;;4.34;100.00;96607.34;5073336;28;19935;-75
2022/04/02 02:36:52;;;;;;;;;;;;;;;4.24;100.00;96609.94;5078564;28;19931;-77
2022/04/02 02:39:18;;;;;;;;;;;;;;;3.86;100.00;96612.81;5075324;28;19996;-75
2022/04/02 02:41:44;;;;;;;;;;;;;;;3.62;100.00;96611.56;5075150;28;19925;-76
2022/04/02 02:44:11;;;;;;;;;;;;;;;3.72;100.00;96612.44;5077482;28;19963;-76
2022/04/02 02:46:37;;;;;;;;;;;;;;;3.90;100.00;96605.97;5077653;28;19954;-76
2022/04/02 02:49:05;;;;;;;;;;;;;;;3.47;100.00;96619.31;5077379;28;19924;-76
2022/04/02 02:51:31;;;;;;;;;;;;;;;3.39;100.00;96620.56;5073538;28;19935;-76
2022/04/02 02:53:57;;;;;;;;;;;;;;;3.67;100.00;96620.31;5074439;28;19925;-76
2022/04/02 02:56:24;;;;;;;;;;;;;;;3.72;100.00;96615.06;5076548;28;20019;-76
2022/04/02 02:58:50;;;;;;;;;;;;;;;3.61;100.00;96618.69;5076087;28;19962;-76
2022/04/02 03:01:17;;;;;;;;;;;;;;;3.51;100.00;96621.22;5072961;28;19988;-76
2022/04/02 03:03:43;;;;;;;;;;;;;;;4.13;100.00;96616.19;5073726;28;19925;-76
2022/04/02 03:06:11;;;;;;;;;;;;;;;3.33;100.00;96623.41;5082237;28;19931;-76
2022/04/02 03:08:37;;;;;;;;;;;;;;;3.57;100.00;96622.84;5072827;28;19932;-76
2022/04/02 03:11:04;;;;;;;;;;;;;;;3.77;100.00;96620.41;5075128;28;20035;-76
2022/04/02 03:13:30;;;;;;;;;;;;;;;3.87;100.00;96624.97;5080270;28;19933;-77
2022/04/02 03:15:57;;;;;;;;;;;;;;;3.41;100.00;96628.22;5074798;28;19932;-76
2022/04/02 03:18:23;;;;;;;;;;;;;;;3.50;100.00;96629.38;5076856;28;19932;-76
2022/04/02 03:20:50;;;;;;;;;;;;;;;3.65;100.00;96621.63;5077532;28;19951;-76
2022/04/02 03:23:17;;;;;;;;;;;;;;;3.91;100.00;96620.78;5075190;28;19935;-75
2022/04/02 03:25:44;;;;;;;;;;;;;;;2.89;100.00;96631.34;5074058;28;19929;-75
2022/04/02 03:28:10;;;;;;;;;;;;;;;2.67;100.00;96633.97;5075608;28;19977;-75
2022/04/02 03:30:38;;;;;;;;;;;;;;;2.83;100.00;96627.03;5077102;28;19928;-75
2022/04/02 03:33:04;;;;;;;;;;;;;;;3.64;100.00;96628.72;5075857;28;20014;-75
2022/04/02 03:35:30;;;;;;;;;;;;;;;3.74;100.00;96635.97;5073204;28;19924;-75
2022/04/02 03:37:57;;;;;;;;;;;;;;;3.03;100.00;96635.19;5073671;28;19925;-75
2022/04/02 03:40:26;;;;;;;;;;;;;;;3.23;100.00;96635.44;5076143;28;19924;-76
2022/04/02 03:42:53;;;;;;;;;;;;;;;3.60;100.00;96630.28;5075760;28;19925;-76
2022/04/02 03:45:21;;;;;;;;;;;;;;;3.63;100.00;96640.34;5072515;28;19929;-75
2022/04/02 03:47:47;;;;;;;;;;;;;;;4.14;100.00;96646.88;5072152;28;19935;-75
2022/04/02 03:50:14;;;;;;;;;;;;;;;4.12;100.00;96648.13;5074649;28;19947;-75
2022/04/02 03:52:41;;;;;;;;;;;;;;;4.05;100.00;96637.00;5077134;28;19983;-76
2022/04/02 03:55:08;;;;;;;;;;;;;;;3.12;100.00;96633.75;5073916;28;19925;-76
2022/04/02 03:57:36;;;;;;;;;;;;;;;3.05;100.00;96641.03;5071756;28;19925;-76
2022/04/02 04:00:04;;;;;;;;;;;;;;;3.22;100.00;96654.13;5074361;28;20239;-75
2022/04/02 04:02:31;;;;;;;;;;;;;;;3.15;100.00;96659.63;5075543;28;19960;-76
2022/04/02 04:04:58;;;;;;;;;;;;;;;3.28;100.00;96659.22;5076426;28;19925;-76
2022/04/02 04:07:24;;;;;;;;;;;;;;;3.30;100.00;96656.34;5072267;28;19925;-75
2022/04/02 04:09:50;;;;;;;;;;;;;;;2.80;100.00;96651.25;5073053;28;19925;-75
2022/04/02 04:12:17;;;;;;;;;;;;;;;2.69;100.00;96662.72;5074739;28;19964;-75
2022/04/02 04:14:46;;;;;;;;;;;;;;;3.23;100.00;96664.47;5077617;28;19924;-75
2022/04/02 04:17:13;;;;;;;;;;;;;;;3.13;100.00;96666.97;5076889;28;19943;-75
2022/04/02 04:19:40;;;;;;;;;;;;;;;3.08;100.00;96666.91;5075864;28;20027;-75
2022/04/02 04:22:06;;;;;;;;;;;;;;;2.85;100.00;96669.00;5078056;28;20163;-75
2022/04/02 04:24:33;;;;;;;;;;;;;;;2.86;100.00;96665.31;5079071;28;19920;-75
2022/04/02 04:26:59;;;;;;;;;;;;;;;2.78;100.00;96671.81;5079526;28;19968;-75
2022/04/02 04:29:25;;;;;;;;;;;;;;;3.81;100.00;96674.28;5076905;28;19931;-75
2022/04/02 04:31:53;;;;;;;;;;;;;;;3.99;100.00;96670.50;5075337;28;19988;-74
2022/04/02 04:34:19;;;;;;;;;;;;;;;3.38;100.00;96673.56;5079794;28;19968;-76
2022/04/02 04:36:46;;;;;;;;;;;;;;;3.42;100.00;96679.97;5078612;28;19956;-75
2022/04/02 04:39:12;;;;;;;;;;;;;;;3.50;100.00;96674.22;5076436;28;19924;-74
2022/04/02 04:41:41;;;;;;;;;;;;;;;3.14;100.00;96688.88;5075374;28;19991;-76
2022/04/02 04:44:07;;;;;;;;;;;;;;;2.75;100.00;96674.94;5076952;28;20017;-76
2022/04/02 04:46:34;;;;;;;;;;;;;;;2.86;100.00;96679.28;5079550;28;20169;-76
2022/04/02 04:49:01;;;;;;;;;;;;;;;3.25;100.00;96680.03;5078132;28;19932;-74
2022/04/02 04:51:28;;;;;;;;;;;;;;;3.71;100.00;96686.63;5078341;28;19984;-75
2022/04/02 04:53:55;;;;;;;;;;;;;;;3.37;100.00;96685.19;5078148;28;19935;-75
2022/04/02 04:56:21;;;;;;;;;;;;;;;3.17;100.00;96694.47;5069755;28;19992;-75
2022/04/02 04:58:47;;;;;;;;;;;;;;;2.87;100.00;96694.06;5077229;28;20219;-75
2022/04/02 05:01:14;;;;;;;;;;;;;;;2.34;100.00;96694.63;5078973;28;19975;-75
2022/04/02 05:03:41;;;;;;;;;;;;;;;2.19;100.00;96702.28;5079156;28;19925;-75
2022/04/02 05:06:11;;;;;;;;;;;;;;;2.71;100.00;96700.16;5076731;28;19992;-76
2022/04/02 05:08:37;;;;;;;;;;;;;;;3.28;100.00;96707.78;5074600;28;19990;-75
2022/04/02 05:11:04;;;;;;;;;;;;;;;2.39;100.00;96712.31;5076075;28;19968;-75
2022/04/02 05:13:30;;;;;;;;;;;;;;;3.13;100.00;96714.44;5080527;28;19924;-75
2022/04/02 05:15:57;;;;;;;;;;;;;;;3.48;100.00;96713.28;5074608;28;19959;-75
2022/04/02 05:18:23;;;;;;;;;;;;;;;2.36;100.00;96718.06;5080146;28;19967;-75
2022/04/02 05:20:50;;;;;;;;;;;;;;;2.56;100.00;96711.31;5078271;28;20420;-75
2022/04/02 05:23:17;;;;;;;;;;;;;;;2.99;100.00;96717.69;5076625;28;19935;-75
2022/04/02 05:25:44;;;;;;;;;;;;;;;2.54;100.00;96728.38;5075320;28;19935;-75
2022/04/02 05:28:10;;;;;;;;;;;;;;;3.33;100.00;96726.28;5077512;28;19947;-75
2022/04/02 05:30:37;;;;;;;;;;;;;;;3.33;100.00;96729.75;5079347;28;19988;-75
2022/04/02 05:33:04;;;;;;;;;;;;;;;3.55;100.00;96722.63;5078089;28;19951;-75
2022/04/02 05:35:30;;;;;;;;;;;;;;;3.64;100.00;96730.88;5074596;28;19925;-75
2022/04/02 05:37:57;;;;;;;;;;;;;;;3.34;100.00;96730.53;5074037;28;19996;-75
2022/04/02 05:40:24;;;;;;;;;;;;;;;3.34;100.00;96736.63;5077619;28;20436;-75
2022/04/02 05:42:51;;;;;;;;;;;;;;;3.09;100.00;96729.19;5077196;28;19924;-75
2022/04/02 05:45:17;;;;;;;;;;;;;;;3.51;100.00;96741.81;5074994;28;20370;-75
2022/04/02 05:47:45;;;;;;;;;;;;;;;3.75;100.00;96733.38;5073797;28;19937;-75
2022/04/02 05:50:12;;;;;;;;;;;;;;;3.62;100.00;96739.03;5077756;28;19925;-75
2022/04/02 05:52:38;;;;;;;;;;;;;;;3.11;100.00;96742.13;5078836;28;19935;-75
2022/04/02 05:55:05;;;;;;;;;;;;;;;2.78;100.00;96742.19;5076499;28;19986;-76
2022/04/02 05:57:33;;;;;;;;;;;;;;;2.83;100.00;96750.16;5073869;28;19987;-75
2022/04/02 06:00:00;;;;;;;;;;;;;;;2.72;100.00;96744.72;5076161;28;20389;-75
2022/04/02 06:02:27;;;;;;;;;;;;;;;3.02;100.00;96759.41;5076792;28;19932;-75
2022/04/02 06:04:53;;;;;;;;;;;;;;;3.00;100.00;96757.00;5078251;28;19924;-75
2022/04/02 06:07:19;;;;;;;;;;;;;;;2.58;100.00;96758.47;5073899;28;19928;-75
2022/04/02 06:09:46;;;;;;;;;;;;;;;3.08;100.00;96759.22;5076132;28;19936;-76
2022/04/02 06:12:12;;;;;;;;;;;;;;;2.62;100.00;96772.78;5077899;28;19996;-75
2022/04/02 06:14:40;;;;;;;;;;;;;;;3.49;100.00;96760.56;5077241;28;19924;-75
2022/04/02 06:17:06;;;;;;;;;;;;;;;2.69;100.00;96778.69;5075964;28;19924;-75
2022/04/02 06:19:33;;;;;;;;;;;;;;;3.23;100.00;96772.63;5074344;28;20004;-75
2022/04/02 06:21:59;;;;;;;;;;;;;;;3.02;100.00;96776.03;5075533;28;19978;-76
2022/04/02 06:24:25;;;;;;;;;;;;;;;2.94;100.00;96773.78;5078969;28;19925;-75
2022/04/02 06:26:52;;;;;;;;;;;;;;;2.72;100.00;96775.59;5078236;28;19950;-74
2022/04/02 06:29:19;;;;;;;;;;;;;;;3.21;100.00;96774.72;5074934;28;20027;-75
2022/04/02 06:31:47;;;;;;;;;;;;;;;3.11;100.00;96779.03;5073929;28;19929;-75
2022/04/02 06:34:13;;;;;;;;;;;;;;;2.90;100.00;96785.88;5076400;28;19932;-75
2022/04/02 06:36:39;;;;;;;;;;;;;;;2.92;100.00;96785.63;5076261;28;19947;-75
2022/04/02 06:39:06;;;;;;;;;;;;;;;3.22;100.00;96786.03;5075500;28;19963;-75
2022/04/02 06:41:32;;;;;;;;;;;;;;;3.28;100.00;96785.06;5073945;28;19944;-75
2022/04/02 06:43:59;;;;;;;;;;;;;;;3.36;100.00;96786.50;5074060;28;19931;-76
2022/04/02 06:46:25;;;;;;;;;;;;;;;3.27;100.00;96788.75;5076900;28;19946;-76
2022/04/02 06:48:53;;;;;;;;;;;;;;;2.95;100.00;96780.66;5075874;28;19952;-76
2022/04/02 06:51:20;;;;;;;;;;;;;;;2.97;100.00;96798.91;5072978;28;19954;-75
2022/04/02 06:53:47;;;;;;;;;;;;;;;3.15;100.00;96795.97;5073573;28;20424;-75
2022/04/02 06:56:13;;;;;;;;;;;;;;;3.04;100.00;96789.75;5077464;28;19924;-75
2022/04/02 06:58:39;;;;;;;;;;;;;;;2.66;100.00;96797.63;5078261;28;19925;-75
2022/04/02 07:01:06;;;;;;;;;;;;;;;2.78;100.00;96805.44;5074850;28;19924;-75
2022/04/02 07:03:32;;;;;;;;;;;;;;;2.79;100.00;96810.47;5073121;28;20295;-75
2022/04/02 07:06:00;;;;;;;;;;;;;;;2.87;100.00;96804.00;5073140;28;19963;-75
2022/04/02 07:08:27;;;;;;;;;;;;;;;2.68;100.00;96806.88;5077470;28;20262;-76
2022/04/02 07:10:53;;;;;;;;;;;;;;;2.92;100.00;96818.06;5076306;28;20050;-76
2022/04/02 07:13:20;;;;;;;;;;;;;;;3.02;100.00;96823.50;5074512;28;19964;-74
2022/04/02 07:15:46;;;;;;;;;;;;;;;2.77;100.00;96825.75;5074952;28;19975;-76
2022/04/02 07:18:13;;;;;;;;;;;;;;;2.46;100.00;96834.97;5076557;28;19936;-76
2022/04/02 07:20:40;;;;;;;;;;;;;;;2.43;100.00;96839.91;5077771;28;19956;-76
2022/04/02 07:23:09;;;;;;;;;;;;;;;2.16;100.00;96840.53;5075955;28;19924;-76
2022/04/02 07:25:36;;;;;;;;;;;;;;;2.16;100.00;96843.16;5072700;28;19925;-75
2022/04/02 07:28:04;;;;;;;;;;;;;;;1.94;100.00;96847.47;5074559;28;19975;-75
2022/04/02 07:30:32;;;;;;;;;;;;;;;1.99;100.00;96850.19;5078309;28;19921;-76
2022/04/02 07:32:58;;;;;;;;;;;;;;;2.13;100.00;96854.16;5082543;28;19924;-75
2022/04/02 07:35:25;;;;;;;;;;;;;;;2.65;100.00;96864.56;5077396;28;19921;-75
2022/04/02 07:37:58;;;;;;;;;;;;;;;2.26;100.00;96855.69;5078420;28;19929;-75
2022/04/02 07:40:27;;;;;;;;;;;;;;;2.40;100.00;96872.81;5064280;28;19952;-75
2022/04/02 07:42:58;;;;;;;;;;;;;;;2.21;100.00;96873.22;5075937;28;20409;-75
2022/04/02 07:45:27;;;;;;;;;;;;;;;2.17;100.00;96873.69;5065756;28;19924;-75
2022/04/02 07:47:55;;;;;;;;;;;;;;;2.61;100.00;96873.97;5072575;28;19931;-76
2022/04/02 07:50:24;;;;;;;;;;;;;;;2.61;100.00;96881.88;5069439;28;19928;-76
2022/04/02 07:52:51;;;;;;;;;;;;;;;2.63;100.00;96882.44;5077809;28;20333;-75
2022/04/02 07:55:18;;;;;;;;;;;;;;;3.01;100.00;96881.75;5080538;28;20010;-75
2022/04/02 07:57:47;;;;;;;;;;;;;;;3.23;100.00;96878.16;5079960;28;20266;-75
2022/04/02 08:00:15;;;;;;;;;;;;;;;3.28;100.00;96890.59;5077363;28;19935;-75
2022/04/02 08:02:43;;;;;;;;;;;;;;;2.70;100.00;96898.91;5075902;28;20233;-76
2022/04/02 08:05:12;;;;;;;;;;;;;;;2.57;100.00;96907.09;5077585;28;19967;-75
2022/04/02 08:07:39;;;;;;;;;;;;;;;2.57;100.00;96894.72;5080335;28;19936;-75
2022/04/02 08:10:08;;;;;;;;;;;;;;;2.80;100.00;96903.53;5077941;28;19932;-76
2022/04/02 08:12:35;;;;;;;;;;;;;;;2.32;100.00;96901.38;5079632;28;19925;-75
2022/04/02 08:15:03;;;;;;;;;;;;;;;2.72;100.00;96907.38;5078577;28;19992;-74
2022/04/02 08:17:30;;;;;;;;;;;;;;;3.32;100.00;96896.19;5076373;28;20454;-75
2022/04/02 08:19:58;;;;;;;;;;;;;;;3.05;100.00;96910.03;5076262;28;19959;-75
2022/04/02 08:22:24;;;;;;;;;;;;;;;2.90;100.00;96909.00;5081351;28;19955;-76
2022/04/02 08:24:51;;;;;;;;;;;;;;;3.02;100.00;96918.44;5081333;28;19966;-76
2022/04/02 08:27:24;;;;;;;;;;;;;;;2.54;100.00;96910.19;5077153;28;19968;-75
2022/04/02 08:29:57;;;;;;;;;;;;;;;2.47;100.00;96925.38;5077343;28;19963;-75
2022/04/02 08:32:31;;;;;;;;;;;;;;;3.23;100.00;96927.47;5069857;28;19925;-74
2022/04/02 08:35:05;;;;;;;;;;;;;;;2.84;100.00;96920.50;5077751;28;19964;-76
2022/04/02 08:37:41;;;;;;;;;;;;;;;2.87;100.00;96926.09;5080623;28;19982;-75
2022/04/02 08:40:13;;;;;;;;;;;;;;;2.61;100.00;96922.22;5078822;28;19940;-74
2022/04/02 08:42:52;;;;;;;;;;;;;;;2.36;100.00;96928.84;5082371;28;19959;-74
2022/04/02 08:45:24;;;;;;;;;;;;;;;3.34;100.00;96928.44;5076556;28;19959;-75
2022/04/02 08:48:08;;;;;;;;;;;;;;;3.95;100.00;96927.44;5077529;28;20377;-75
2022/04/02 08:50:36;;;;;;;;;;;;;;;3.38;100.00;96945.38;5069613;28;20347;-76
2022/04/02 08:53:15;;;;;;;;;;;;;;;3.28;100.00;96947.88;5076524;28;19929;-75
2022/04/02 08:55:46;;;;;;;;;;;;;;;3.26;100.00;96962.09;5080952;28;19925;-75
2022/04/02 08:58:20;;;;;;;;;;;;;;;3.28;100.00;96961.06;5077585;28;19931;-75
2022/04/02 09:00:51;;;;;;;;;;;;;;;3.54;100.00;96955.94;5076240;28;19925;-75
2022/04/02 09:03:36;;;;;;;;;;;;;;;3.46;100.00;96961.63;5078688;28;19925;-75
2022/04/02 09:06:18;;;;;;;;;;;;;;;3.14;100.00;96969.28;5077967;28;19960;-76
2022/04/02 09:09:06;;;;;;;;;;;;;;;3.25;100.00;96964.94;5075385;28;19925;-75
2022/04/02 09:11:50;;;;;;;;;;;;;;;3.02;100.00;96968.56;5067737;28;19929;-74
2022/04/02 09:14:32;;;;;;;;;;;;;;;2.38;100.00;96969.75;5070925;28;19925;-75
2022/04/02 09:17:03;;;;;;;;;;;;;;;2.73;100.00;96988.03;5077402;28;19924;-75
2022/04/02 09:19:39;;;;;;;;;;;;;;;3.01;100.00;96981.97;5075012;28;19988;-75
2022/04/02 09:22:07;;;;;;;;;;;;;;;2.72;100.00;96981.19;5076086;28;20241;-74
2022/04/02 09:24:57;;;;;;;;;;;;;;;3.27;100.00;96986.63;5079779;28;19928;-75
2022/04/02 09:27:43;;;;;;;;;;;;;;;3.30;100.00;96990.63;5054943;28;19992;-75
2022/04/02 09:30:18;;;;;;;;;;;;;;;3.54;100.00;96989.44;5058057;28;19955;-75
2022/04/02 09:33:06;;;;;;;;;;;;;;;3.19;100.00;96997.56;5079543;28;19963;-75
2022/04/02 09:35:41;;;;;;;;;;;;;;;2.25;100.00;97000.81;5069396;28;20610;-75
2022/04/02 09:38:27;;;;;;;;;;;;;;;2.61;100.00;97013.66;5076390;28;19925;-75
2022/04/02 09:40:59;;;;;;;;;;;;;;;3.39;100.00;97018.22;5077964;28;19964;-75
2022/04/02 09:43:28;;;;;;;;;;;;;;;2.67;100.00;97007.44;5069450;28;19963;-76
2022/04/02 09:46:06;;;;;;;;;;;;;;;2.45;100.00;97014.38;5074337;28;20473;-76
2022/04/02 09:48:39;;;;;;;;;;;;;;;2.28;100.00;97008.25;5068953;28;19925;-75
2022/04/02 09:51:08;;;;;;;;;;;;;;;2.22;100.00;97023.16;5076515;28;19940;-75
2022/04/02 09:53:39;;;;;;;;;;;;;;;2.61;100.00;97026.81;5079336;28;19924;-75
2022/04/02 09:56:12;;;;;;;;;;;;;;;2.50;100.00;97039.03;5078767;28;19924;-75
2022/04/02 09:58:51;;;;;;;;;;;;;;;2.86;100.00;97029.97;5074735;28;19925;-75
2022/04/02 10:01:26;;;;;;;;;;;;;;;2.40;100.00;97032.72;5078894;28;19935;-75
2022/04/02 10:03:53;;;;;;;;;;;;;;;2.33;100.00;97040.75;5077619;28;19931;-75
2022/04/02 10:06:23;;;;;;;;;;;;;;;2.18;100.00;97051.78;5074629;28;20263;-76
2022/04/02 10:08:57;;;;;;;;;;;;;;;1.62;100.00;97056.78;5075575;28;19925;-76
2022/04/02 10:11:27;;;;;;;;;;;;;;;2.04;100.00;97053.03;5066982;28;19936;-76
2022/04/02 10:13:57;;;;;;;;;;;;;;;3.13;100.00;97052.09;5074201;28;19928;-76
2022/04/02 10:16:25;;;;;;;;;;;;;;;3.33;100.00;97056.13;5075117;28;19974;-75
2022/04/02 10:18:53;;;;;;;;;;;;;;;2.76;100.00;97044.78;5075289;28;19924;-75
2022/04/02 10:21:20;;;;;;;;;;;;;;;2.35;100.00;97043.97;5078699;28;19924;-75
2022/04/02 10:23:50;;;;;;;;;;;;;;;3.13;100.00;97064.47;5079559;28;19924;-76
2022/04/02 10:26:20;;;;;;;;;;;;;;;2.65;100.00;97054.31;5075496;28;20618;-76
2022/04/02 10:28:56;;;;;;;;;;;;;;;3.24;100.00;97061.00;5076349;28;20073;-76
2022/04/02 10:31:30;;;;;;;;;;;;;;;3.39;100.00;97063.09;5067660;28;19921;-75
2022/04/02 10:33:59;;;;;;;;;;;;;;;2.92;100.00;97055.38;5075323;28;19928;-76
2022/04/02 10:36:26;;;;;;;;;;;;;;;2.81;100.00;97047.53;5079157;28;19925;-76
2022/04/02 10:38:54;;;;;;;;;;;;;;;2.93;100.00;97046.44;5080232;28;19951;-76
2022/04/02 10:41:22;;;;;;;;;;;;;;;3.09;100.00;97050.16;5076858;28;19936;-74
2022/04/02 10:43:51;;;;;;;;;;;;;;;3.23;100.00;97052.28;5076821;28;19925;-75
2022/04/02 10:46:19;;;;;;;;;;;;;;;2.89;100.00;97061.13;5079234;28;19928;-76
2022/04/02 10:48:57;;;;;;;;;;;;;;;3.28;100.00;97057.63;5079802;28;19951;-76
2022/04/02 10:51:25;;;;;;;;;;;;;;;3.80;100.00;97068.00;5064687;28;19999;-76
2022/04/02 10:53:59;;;;;;;;;;;;;;;3.59;100.00;97068.72;5070220;28;20477;-76
2022/04/02 10:56:28;;;;;;;;;;;;;;;3.43;100.00;97066.88;5067238;28;19925;-75
2022/04/02 10:58:55;;;;;;;;;;;;;;;3.07;100.00;97057.50;5074561;28;19932;-76
2022/04/02 11:01:23;;;;;;;;;;;;;;;2.95;100.00;97065.47;5077887;28;19931;-76
2022/04/02 11:03:55;;;;;;;;;;;;;;;2.77;100.00;97068.28;5078504;28;19935;-76
2022/04/02 11:06:36;;;;;;;;;;;;;;;3.12;100.00;97068.97;5074083;28;19924;-76
2022/04/02 11:09:23;;;;;;;;;;;;;;;3.22;100.00;97071.78;5075573;28;19928;-76
2022/04/02 11:11:52;;;;;;;;;;;;;;;2.78;100.00;97080.44;5079859;28;19924;-76
2022/04/02 11:14:20;;;;;;;;;;;;;;;2.96;100.00;97082.91;5078204;28;19947;-76
2022/04/02 11:16:46;;;;;;;;;;;;;;;3.16;100.00;97078.00;5078849;28;19924;-76
2022/04/02 11:22:01;;;;;;;;;;;;;;;2.72;100.00;97073.47;5073169;28;19940;-76
2022/04/02 11:24:31;;;;;;;;;;;;;;;2.50;100.00;97077.75;5065493;28;19924;-76
2022/04/02 11:27:00;;;;;;;;;;;;;;;2.69;100.00;97076.56;5074223;28;19924;-76
2022/04/02 11:29:28;;;;;;;;;;;;;;;2.82;100.00;97078.09;5076271;28;19924;-75
2022/04/02 11:31:56;;;;;;;;;;;;;;;2.75;100.00;97088.00;5076517;28;19928;-75
2022/04/02 11:34:28;;;;;;;;;;;;;;;2.16;100.00;97092.56;5064517;28;20050;-76
2022/04/02 11:36:59;;;;;;;;;;;;;;;2.13;100.00;97088.53;5073259;28;19929;-75
2022/04/02 11:39:33;;;;;;;;;;;;;;;1.91;100.00;97100.66;5066714;28;19991;-75
2022/04/02 11:42:02;;;;;;;;;;;;;;;2.36;100.00;97097.44;5074599;28;19925;-76
2022/04/02 11:44:35;;;;;;;;;;;;;;;2.20;100.00;97093.66;5078209;28;20690;-76
2022/04/02 11:47:02;;;;;;;;;;;;;;;2.29;100.00;97099.41;5075993;28;19931;-75
2022/04/02 11:49:29;;;;;;;;;;;;;;;1.91;100.00;97095.41;5072815;28;19925;-75
2022/04/02 11:52:03;;;;;;;;;;;;;;;2.22;100.00;97096.91;5073987;28;19925;-74
2022/04/02 11:54:30;;;;;;;;;;;;;;;2.59;100.00;97098.25;5066705;28;19925;-75
2022/04/02 11:57:09;;;;;;;;;;;;;;;2.52;100.00;97102.03;5076931;28;19929;-82
2022/04/02 11:59:36;;;;;;;;;;;;;;;2.18;100.00;97099.19;5072404;28;19958;-84
2022/04/02 12:02:02;;;;;;;;;;;;;;;2.34;100.00;97102.16;5079022;28;19962;-83
2022/04/02 12:04:29;;;;;;;;;;;;;;;2.30;100.00;97114.16;5081364;28;19968;-75
2022/04/02 12:07:03;;;;;;;;;;;;;;;2.56;100.00;97113.72;5077411;28;19939;-75
2022/04/02 12:09:30;;;;;;;;;;;;;;;2.27;100.00;97110.16;5052669;28;19957;-75
2022/04/02 12:11:57;;;;;;;;;;;;;;;2.46;100.00;97113.47;5069972;28;20005;-75
2022/04/02 12:14:29;;;;;;;;;;;;;;;2.32;100.00;97120.03;5081056;28;19984;-76
2022/04/02 12:16:58;;;;;;;;;;;;;;;2.26;100.00;97131.50;5072421;28;20243;-76
2022/04/02 12:19:33;;;;;;;;;;;;;;;2.20;100.00;97135.03;5065902;28;19940;-75
2022/04/02 12:21:59;;;;;;;;;;;;;;;2.43;100.00;97127.13;5072474;28;19988;-76
2022/04/02 12:24:27;;;;;;;;;;;;;;;2.07;100.00;97136.84;5076240;28;19924;-77
2022/04/02 12:26:53;;;;;;;;;;;;;;;2.31;100.00;97129.75;5077079;28;19924;-76
2022/04/02 12:29:20;;;;;;;;;;;;;;;2.30;100.00;97145.78;5073609;28;19924;-75
2022/04/02 12:31:51;;;;;;;;;;;;;;;2.46;100.00;97138.00;5072119;28;19925;-76
2022/04/02 12:34:20;;;;;;;;;;;;;;;2.49;100.00;97139.38;5074992;28;19929;-76
2022/04/02 12:36:46;;;;;;;;;;;;;;;2.28;100.00;97142.59;5080148;28;19925;-75
2022/04/02 12:39:19;;;;;;;;;;;;;;;2.52;100.00;97141.53;5078591;28;19924;-77
2022/04/02 12:41:46;;;;;;;;;;;;;;;2.30;100.00;97140.53;5075634;28;20320;-77
2022/04/02 12:44:13;;;;;;;;;;;;;;;2.57;100.00;97145.09;5076478;28;20461;-76
2022/04/02 12:46:40;;;;;;;;;;;;;;;2.55;100.00;97138.44;5080685;28;20462;-76
2022/04/02 12:49:07;;;;;;;;;;;;;;;2.42;100.00;97142.13;5079093;28;19924;-76
2022/04/02 12:51:34;;;;;;;;;;;;;;;2.39;100.00;97149.69;5077986;28;19925;-76
2022/04/02 12:54:03;;;;;;;;;;;;;;;2.56;100.00;97145.34;5077268;28;19996;-76
2022/04/02 12:56:30;;;;;;;;;;;;;;;2.61;100.00;97153.34;5081166;28;20397;-76
2022/04/02 12:58:57;;;;;;;;;;;;;;;2.65;100.00;97149.22;5079875;28;20319;-76
2022/04/02 13:01:28;;;;;;;;;;;;;;;2.70;100.00;97150.13;5056168;28;19925;-76